Time;durP1;ratioP1;P1;durP2;ratioP2;P2;SDS_P1;SDS_P2;PMS_P1;PMS_P2;Temp;Humidity;BMP_temperature;BMP_pressure;BME280_temperature;BME280_humidity;BME280_pressure;Samples;Min_cycle;Max_cycle;Signal;HPM_P1;HPM_P2
2022/07/01 00:02:18;;;;;;;13.32;11.75;;;;;;;15.12;81.04;101401.91;5112367;28;20367;-57
2022/07/01 00:04:44;;;;;;;15.18;11.55;;;;;;;15.17;80.35;101404.22;5111377;28;20027;-57
2022/07/01 00:07:11;;;;;;;14.48;13.07;;;;;;;15.15;81.48;101400.81;5113718;27;20043;-57
2022/07/01 00:09:37;;;;;;;13.93;12.50;;;;;;;15.30;81.12;101404.19;5116645;27;20019;-58
2022/07/01 00:12:05;;;;;;;14.18;12.77;;;;;;;15.15;80.68;101396.31;5132736;27;20466;-57
2022/07/01 00:14:32;;;;;;;15.57;12.57;;;;;;;15.15;80.55;101396.31;5133038;27;20061;-58
2022/07/01 00:16:57;;;;;;;14.40;12.95;;;;;;;15.20;80.45;101398.63;5134556;27;20026;-57
2022/07/01 00:19:24;;;;;;;15.40;12.18;;;;;;;15.14;80.56;101388.38;5114967;27;20023;-57
2022/07/01 00:21:50;;;;;;;14.40;12.93;;;;;;;15.25;80.91;101393.81;5113818;27;20046;-57
2022/07/01 00:24:18;;;;;;;14.80;13.30;;;;;;;15.20;81.23;101394.13;5134204;27;20459;-57
2022/07/01 00:26:44;;;;;;;14.50;13.10;;;;;;;15.23;80.75;101387.69;5116473;27;20031;-58
2022/07/01 00:29:10;;;;;;;15.85;12.90;;;;;;;15.16;81.05;101381.94;5114336;27;20031;-57
2022/07/01 00:31:35;;;;;;;14.02;12.68;;;;;;;15.06;80.36;101388.97;5115313;27;20068;-57
2022/07/01 00:34:04;;;;;;;15.95;13.68;;;;;;;14.94;81.09;101373.75;5133946;27;20051;-57
2022/07/01 00:36:29;;;;;;;16.25;14.57;;;;;;;14.87;82.30;101359.97;5133052;27;20027;-57
2022/07/01 00:38:55;;;;;;;15.40;13.50;;;;;;;14.85;82.29;101358.38;5113774;27;20116;-58
2022/07/01 00:41:21;;;;;;;18.38;14.07;;;;;;;14.81;82.79;101356.88;5130861;27;20053;-57
2022/07/01 00:43:47;;;;;;;19.70;14.70;;;;;;;14.82;82.80;101346.03;5114210;27;20168;-57
2022/07/01 00:46:12;;;;;;;14.85;13.30;;;;;;;14.95;82.80;101352.22;5132379;27;20081;-57
2022/07/01 00:48:38;;;;;;;16.05;14.18;;;;;;;15.01;80.83;101360.78;5115422;27;20023;-57
2022/07/01 00:51:04;;;;;;;15.25;13.68;;;;;;;14.93;82.35;101338.09;5114021;27;20033;-57
2022/07/01 00:53:31;;;;;;;14.75;13.25;;;;;;;15.02;81.95;101357.13;5115186;27;20019;-57
2022/07/01 00:55:56;;;;;;;19.85;14.25;;;;;;;14.91;81.60;101365.94;5132774;27;20115;-57
2022/07/01 00:58:22;;;;;;;17.10;13.88;;;;;;;14.93;82.27;101364.03;5132839;27;20401;-57
2022/07/01 01:00:47;;;;;;;15.90;14.20;;;;;;;14.94;82.33;101373.75;5115167;27;20035;-57
2022/07/01 01:03:13;;;;;;;15.13;13.43;;;;;;;14.85;82.24;101363.72;5133310;27;20035;-57
2022/07/01 01:05:40;;;;;;;15.55;13.93;;;;;;;14.90;83.16;101380.31;5131600;27;20446;-57
2022/07/01 01:08:08;;;;;;;18.08;15.00;;;;;;;14.84;82.55;101386.97;5132032;27;20114;-57
2022/07/01 01:10:35;;;;;;;16.45;14.70;;;;;;;14.87;83.09;101384.06;5133348;27;20106;-57
2022/07/01 01:13:00;;;;;;;17.20;14.65;;;;;;;14.87;82.96;101394.78;5113034;27;20102;-57
2022/07/01 01:15:29;;;;;;;20.50;15.38;;;;;;;14.80;83.30;101396.22;5132377;27;20545;-57
2022/07/01 01:17:54;;;;;;;17.65;15.65;;;;;;;14.81;83.35;101405.94;5133256;27;20042;-57
2022/07/01 01:20:20;;;;;;;22.30;14.77;;;;;;;14.79;83.49;101415.91;5096593;27;20027;-57
2022/07/01 01:22:49;;;;;;;20.90;16.02;;;;;;;14.79;83.67;101415.91;5132022;27;20019;-57
2022/07/01 01:25:16;;;;;;;16.95;15.15;;;;;;;14.80;84.10;101419.47;5132778;27;20111;-57
2022/07/01 01:27:42;;;;;;;17.42;15.10;;;;;;;14.79;84.67;101418.56;5132645;27;20035;-58
2022/07/01 01:30:11;;;;;;;19.65;16.17;;;;;;;14.79;83.99;101417.72;5132437;27;20379;-57
2022/07/01 01:32:40;;;;;;;23.65;16.33;;;;;;;14.79;84.39;101418.56;5114539;27;20401;-58
2022/07/01 01:35:07;;;;;;;21.23;17.00;;;;;;;14.74;84.43;101426.97;5130812;27;20029;-57
2022/07/01 01:37:33;;;;;;;20.15;17.17;;;;;;;14.82;84.10;101414.81;5131047;27;20397;-57
2022/07/01 01:39:59;;;;;;;21.15;16.63;;;;;;;14.85;84.56;101419.97;5130868;27;20053;-57
2022/07/01 01:42:24;;;;;;;19.83;16.30;;;;;;;14.82;84.83;101422.84;5096187;27;20122;-57
2022/07/01 01:44:50;;;;;;;22.17;16.75;;;;;;;14.79;84.59;101410.53;5113708;27;20389;-57
2022/07/01 01:47:18;;;;;;;22.77;16.73;;;;;;;14.81;85.72;101410.44;5113477;27;20486;-57
2022/07/01 01:49:44;;;;;;;22.43;17.70;;;;;;;14.74;84.17;101407.38;5113863;27;20035;-57
2022/07/01 01:52:09;;;;;;;20.55;17.60;;;;;;;14.69;84.90;101412.19;5113491;27;20084;-57
2022/07/01 01:54:36;;;;;;;21.63;18.35;;;;;;;14.70;85.16;101420.09;5112341;27;20037;-57
2022/07/01 01:57:05;;;;;;;24.33;17.95;;;;;;;14.69;84.63;101414.84;5096416;27;20058;-57
2022/07/01 01:59:31;;;;;;;26.02;18.90;;;;;;;14.68;84.66;101415.84;5112918;27;20473;-57
2022/07/01 02:01:56;;;;;;;27.05;18.48;;;;;;;14.69;85.77;101405.00;5111394;27;20030;-57
2022/07/01 02:04:23;;;;;;;25.20;18.23;;;;;;;14.65;85.25;101419.59;5114094;27;20039;-57
2022/07/01 02:06:49;;;;;;;26.02;18.40;;;;;;;14.63;85.07;101418.81;5131175;27;20030;-57
2022/07/01 02:09:15;;;;;;;31.95;19.05;;;;;;;14.59;85.52;101413.78;5131560;27;20363;-57
2022/07/01 02:11:41;;;;;;;28.20;19.02;;;;;;;14.61;85.66;101426.09;5130714;27;20087;-57
2022/07/01 02:14:06;;;;;;;29.40;18.77;;;;;;;14.55;85.40;101437.25;5113991;27;20035;-57
2022/07/01 02:16:31;;;;;;;25.00;18.75;;;;;;;14.52;85.51;101438.31;5112246;27;20383;-57
2022/07/01 02:18:57;;;;;;;22.50;19.45;;;;;;;14.61;85.91;101450.19;5131314;27;20019;-57
2022/07/01 02:21:25;;;;;;;27.35;18.98;;;;;;;14.51;86.21;101441.97;5093150;27;20162;-57
2022/07/01 02:23:52;;;;;;;29.98;20.15;;;;;;;14.57;85.65;101448.72;5131291;27;20738;-57
2022/07/01 02:26:20;;;;;;;24.90;18.63;;;;;;;14.48;85.82;101452.84;5113346;27;20166;-57
2022/07/01 02:28:46;;;;;;;23.52;18.85;;;;;;;14.50;85.65;101471.47;5113097;27;20053;-57
2022/07/01 02:31:12;;;;;;;23.73;18.40;;;;;;;14.45;85.87;101455.75;5130490;27;20497;-57
2022/07/01 02:33:38;;;;;;;24.98;18.05;;;;;;;14.49;85.82;101437.66;5113659;27;20027;-57
2022/07/01 02:36:04;;;;;;;27.13;18.05;;;;;;;14.47;85.75;101407.44;5112132;28;20035;-57
2022/07/01 02:38:30;;;;;;;25.13;18.85;;;;;;;14.39;85.91;101407.16;5113463;27;20023;-57
2022/07/01 02:40:55;;;;;;;27.02;18.17;;;;;;;14.42;86.44;101415.81;5131483;27;20529;-57
2022/07/01 02:43:21;;;;;;;29.00;18.90;;;;;;;14.47;86.30;101429.75;5130491;27;20096;-57
2022/07/01 02:45:46;;;;;;;24.83;18.67;;;;;;;14.51;85.82;101433.06;5112256;28;20541;-57
2022/07/01 02:48:12;;;;;;;27.38;19.00;;;;;;;14.53;86.48;101441.88;5113130;27;20027;-57
2022/07/01 02:50:37;;;;;;;27.13;19.83;;;;;;;14.58;86.22;101452.25;5131294;27;20107;-57
2022/07/01 02:53:03;;;;;;;25.67;18.13;;;;;;;14.43;85.99;101420.19;5130771;27;20038;-57
2022/07/01 02:55:29;;;;;;;21.88;18.75;;;;;;;14.59;86.13;101451.25;5129649;28;20050;-57
2022/07/01 02:57:55;;;;;;;24.50;18.50;;;;;;;14.57;85.50;101456.75;5130479;28;20047;-57
2022/07/01 03:00:21;;;;;;;24.67;19.75;;;;;;;14.51;85.51;101454.47;5111567;28;20031;-57
2022/07/01 03:02:48;;;;;;;25.45;19.42;;;;;;;14.43;86.15;101446.09;5112401;28;20027;-57
2022/07/01 03:05:19;;;;;;;30.75;21.33;;;;;;;14.42;86.42;101442.59;5113731;28;20027;-57
2022/07/01 03:07:45;;;;;;;29.55;21.85;;;;;;;14.45;86.70;101453.06;5111825;28;20447;-57
2022/07/01 03:10:10;;;;;;;27.95;21.35;;;;;;;14.48;86.50;101450.19;5113046;28;20039;-57
2022/07/01 03:12:37;;;;;;;29.15;21.85;;;;;;;14.51;86.41;101454.47;5095306;28;20486;-57
2022/07/01 03:15:06;;;;;;;27.35;21.15;;;;;;;14.50;86.62;101456.28;5131213;28;20118;-57
2022/07/01 03:17:33;;;;;;;31.20;23.50;;;;;;;14.60;86.57;101458.34;5131301;28;20027;-57
2022/07/01 03:20:00;;;;;;;27.08;21.58;;;;;;;14.66;85.83;101455.25;5130219;28;20058;-57
2022/07/01 03:22:28;;;;;;;28.48;21.63;;;;;;;14.64;85.43;101444.63;5129751;28;20011;-57
2022/07/01 03:24:53;;;;;;;30.20;22.65;;;;;;;14.62;85.14;101441.22;5131496;28;20087;-57
2022/07/01 03:27:20;;;;;;;32.13;23.35;;;;;;;14.51;85.10;101451.78;5129007;27;20035;-57
2022/07/01 03:29:46;;;;;;;28.50;21.80;;;;;;;14.53;85.76;101455.25;5109421;28;20381;-57
2022/07/01 03:32:11;;;;;;;29.80;22.10;;;;;;;14.45;84.85;101454.91;5111574;28;20011;-57
2022/07/01 03:34:38;;;;;;;33.92;23.20;;;;;;;14.22;86.00;101451.97;5096077;28;20046;-57
2022/07/01 03:37:05;;;;;;;32.63;23.77;;;;;;;14.29;86.30;101482.72;5130673;28;20395;-57
2022/07/01 03:39:31;;;;;;;31.25;23.27;;;;;;;14.29;87.50;101482.72;5130852;27;20015;-57
2022/07/01 03:41:57;;;;;;;36.95;24.60;;;;;;;14.22;86.08;101489.44;5133136;27;20085;-57
2022/07/01 03:44:23;;;;;;;29.50;25.15;;;;;;;14.18;86.26;101495.97;5133495;27;20426;-57
2022/07/01 03:46:48;;;;;;;33.42;24.75;;;;;;;14.27;85.33;101490.00;5116774;27;20027;-57
2022/07/01 03:49:13;;;;;;;37.45;24.80;;;;;;;14.21;87.10;101502.94;5133432;27;20114;-57
2022/07/01 03:51:39;;;;;;;32.47;24.00;;;;;;;14.17;87.19;101507.63;5097671;27;20034;-57
2022/07/01 03:56:52;;;;;;;31.73;24.75;;;;;;;14.23;87.26;101507.19;5118854;27;20057;-57
2022/07/01 03:59:17;;;;;;;32.95;25.02;;;;;;;14.29;86.89;101506.81;5134164;27;20023;-57
2022/07/01 04:01:43;;;;;;;31.27;24.98;;;;;;;14.36;86.65;101523.28;5134438;27;20055;-57
2022/07/01 04:04:10;;;;;;;36.83;27.17;;;;;;;14.35;86.42;101523.38;5115315;27;20397;-57
2022/07/01 04:06:36;;;;;;;35.20;28.48;;;;;;;14.32;85.15;101522.66;5132995;27;20051;-57
2022/07/01 04:09:05;;;;;;;40.20;30.60;;;;;;;14.21;86.29;101529.69;5134531;27;20022;-57
2022/07/01 04:11:31;;;;;;;40.20;32.05;;;;;;;14.35;85.91;101531.41;5134516;27;20027;-57
2022/07/01 04:13:57;;;;;;;41.38;31.92;;;;;;;14.26;86.03;101515.00;5114261;27;20023;-57
2022/07/01 04:16:25;;;;;;;38.58;31.63;;;;;;;14.19;86.15;101511.06;5084000;27;20031;-57
2022/07/01 04:18:51;;;;;;;31.33;27.02;;;;;;;14.21;85.70;101525.19;5133634;27;20079;-57
2022/07/01 04:24:01;;;;;;;32.75;26.60;;;;;;;14.19;86.27;101521.75;5133365;27;20049;-58
2022/07/01 04:26:26;;;;;;;28.10;21.88;;;;;;;14.18;85.58;101521.88;5114497;27;20485;-58
2022/07/01 04:28:53;;;;;;;25.77;20.70;;;;;;;14.19;86.67;101524.44;5115851;27;20537;-57
2022/07/01 04:31:19;;;;;;;27.20;21.33;;;;;;;14.22;85.71;101518.88;5113496;27;20106;-57
2022/07/01 04:33:48;;;;;;;25.85;19.63;;;;;;;14.16;85.83;101521.13;5132985;27;20123;-57
2022/07/01 04:36:14;;;;;;;27.80;20.17;;;;;;;14.13;85.98;101514.16;5132451;27;20405;-57
2022/07/01 04:38:42;;;;;;;24.67;19.65;;;;;;;14.19;86.02;101531.59;5115841;27;20046;-57
2022/07/01 04:43:55;;;;;;;27.00;19.38;;;;;;;14.25;86.38;101534.72;5132791;27;20034;-58
2022/07/01 04:46:21;;;;;;;25.58;19.08;;;;;;;14.24;86.65;101534.84;5131914;27;20027;-57
2022/07/01 04:48:46;;;;;;;23.48;17.40;;;;;;;14.32;86.05;101535.16;5115472;27;20033;-57
2022/07/01 04:51:12;;;;;;;25.15;17.95;;;;;;;14.30;86.35;101527.25;5131336;27;20066;-57
2022/07/01 04:53:38;;;;;;;19.98;17.10;;;;;;;14.38;86.38;101531.19;5098532;27;20099;-57
2022/07/01 04:56:03;;;;;;;20.75;16.35;;;;;;;14.45;85.24;101529.84;5132101;27;20069;-57
2022/07/01 04:58:29;;;;;;;23.52;17.33;;;;;;;14.50;85.68;101523.22;5097554;27;20110;-57
2022/07/01 05:00:55;;;;;;;19.55;16.27;;;;;;;14.52;84.54;101521.28;5133535;27;20026;-57
2022/07/01 05:03:21;;;;;;;21.73;15.90;;;;;;;14.58;84.52;101527.19;5112526;27;20035;-57
2022/07/01 05:05:47;;;;;;;19.02;15.48;;;;;;;14.54;84.53;101530.09;5133194;27;20356;-57
2022/07/01 05:08:12;;;;;;;17.17;15.23;;;;;;;14.55;84.73;101541.66;5133328;27;20027;-57
2022/07/01 05:10:38;;;;;;;19.05;15.52;;;;;;;14.54;84.79;101539.94;5112507;27;20026;-57
2022/07/01 05:13:04;;;;;;;20.33;15.07;;;;;;;14.63;84.63;101543.81;5131667;27;20032;-57
2022/07/01 05:15:29;;;;;;;20.55;15.23;;;;;;;14.48;83.65;101527.81;5113600;27;20031;-57
2022/07/01 05:23:24;;;;;;;18.50;14.43;;;;;;;14.46;84.07;101537.75;5117488;27;20111;-57
2022/07/01 05:25:49;;;;;;;17.73;13.65;;;;;;;14.44;84.44;101545.03;5113104;27;20113;-57
2022/07/01 05:28:14;;;;;;;16.92;13.18;;;;;;;14.50;84.56;101547.31;5114383;27;20410;-57
2022/07/01 05:30:40;;;;;;;16.70;13.57;;;;;;;14.45;84.51;101549.44;5114310;27;20596;-57
2022/07/01 05:33:06;;;;;;;16.80;12.95;;;;;;;14.38;84.92;101542.75;5132188;27;20106;-57
2022/07/01 05:35:31;;;;;;;17.67;13.18;;;;;;;14.45;85.54;101536.03;5132173;27;20496;-57
2022/07/01 05:37:57;;;;;;;20.63;14.02;;;;;;;14.53;85.86;101533.75;5130962;27;20042;-57
2022/07/01 05:40:23;;;;;;;14.75;13.15;;;;;;;14.54;84.14;101540.78;5080512;27;20526;-57
2022/07/01 05:42:48;;;;;;;14.48;12.98;;;;;;;14.49;83.22;101545.56;5113862;27;20044;-57
2022/07/01 05:45:13;;;;;;;16.23;14.38;;;;;;;14.50;83.61;101541.94;5131987;27;20019;-57
2022/07/01 05:47:39;;;;;;;17.23;13.45;;;;;;;14.48;84.03;101543.00;5113702;27;20034;-57
2022/07/01 05:50:06;;;;;;;18.70;13.50;;;;;;;14.42;83.91;101546.97;5112697;27;20413;-57
2022/07/01 05:52:32;;;;;;;20.63;14.45;;;;;;;14.46;84.34;101547.59;5113234;27;20029;-57
2022/07/01 05:55:01;;;;;;;21.92;14.13;;;;;;;14.56;85.00;101555.88;5113894;27;20112;-57
2022/07/01 05:57:26;;;;;;;19.67;15.27;;;;;;;14.71;84.40;101553.03;5114492;27;20205;-57
2022/07/01 05:59:51;;;;;;;18.90;15.23;;;;;;;14.84;85.10;101549.50;5114223;27;20126;-57
2022/07/01 06:02:17;;;;;;;18.67;14.13;;;;;;;15.07;83.97;101543.38;5130403;27;20027;-57
2022/07/01 06:04:43;;;;;;;17.20;15.07;;;;;;;15.04;83.37;101542.75;5131293;27;20053;-57
2022/07/01 06:07:10;;;;;;;19.08;14.20;;;;;;;15.06;83.64;101540.78;5111708;27;20019;-57
2022/07/01 06:09:35;;;;;;;19.13;14.55;;;;;;;14.98;82.71;101544.88;5113245;27;20057;-58
2022/07/01 06:12:01;;;;;;;16.92;14.00;;;;;;;14.90;84.45;101549.06;5131540;27;20058;-58
2022/07/01 06:14:27;;;;;;;16.88;13.88;;;;;;;14.85;83.00;101549.38;5094861;27;20117;-58
2022/07/01 06:16:52;;;;;;;15.15;13.45;;;;;;;14.87;83.01;101558.16;5113686;27;20055;-58
2022/07/01 06:19:19;;;;;;;18.80;13.27;;;;;;;14.89;83.57;101553.56;5131155;27;20027;-57
2022/07/01 06:21:47;;;;;;;19.13;13.23;;;;;;;15.02;82.84;101553.56;5095406;27;20031;-58
2022/07/01 06:24:13;;;;;;;15.80;12.55;;;;;;;15.09;82.06;101549.50;5092087;27;20031;-58
2022/07/01 06:26:39;;;;;;;16.63;12.98;;;;;;;15.06;82.10;101554.19;5112711;27;20482;-58
2022/07/01 06:29:06;;;;;;;18.88;12.50;;;;;;;15.04;82.03;101548.94;5130614;27;20035;-58
2022/07/01 06:31:33;;;;;;;16.50;11.82;;;;;;;15.17;81.12;101543.56;5128919;27;20493;-58
2022/07/01 06:33:59;;;;;;;18.25;12.85;;;;;;;15.21;82.07;101542.41;5131700;27;20025;-58
2022/07/01 06:36:27;;;;;;;16.20;11.02;;;;;;;15.29;80.59;101540.00;5131446;27;20109;-57
2022/07/01 06:38:52;;;;;;;15.27;11.82;;;;;;;15.40;80.56;101537.41;5132327;27;20061;-58
2022/07/01 06:41:27;;;;;;;11.32;10.05;;;;;;;15.64;79.75;101545.47;5130150;27;20134;-58
2022/07/01 06:44:00;;;;;;;15.52;9.90;;;;;;;15.74;78.63;101547.56;5131686;27;20106;-58
2022/07/01 06:46:27;;;;;;;13.20;10.00;;;;;;;15.74;79.79;101543.03;5130820;27;20502;-57
2022/07/01 06:48:52;;;;;;;14.73;9.52;;;;;;;15.93;78.05;101538.97;5108494;28;20091;-58
2022/07/01 06:51:18;;;;;;;14.75;9.55;;;;;;;16.06;77.05;101534.41;5088181;28;20036;-57
2022/07/01 06:53:46;;;;;;;10.90;9.07;;;;;;;16.11;75.25;101529.53;5130362;27;20510;-57
2022/07/01 06:56:14;;;;;;;14.43;8.98;;;;;;;16.26;76.49;101538.25;5130127;28;20027;-57
2022/07/01 06:58:43;;;;;;;11.82;8.98;;;;;;;16.46;76.41;101536.75;5130982;28;20102;-57
2022/07/01 07:01:09;;;;;;;13.05;9.57;;;;;;;16.60;74.99;101541.06;5130555;28;20050;-57
2022/07/01 07:03:35;;;;;;;13.23;8.68;;;;;;;16.65;75.09;101536.16;5094178;28;20057;-57
2022/07/01 07:06:02;;;;;;;11.52;8.30;;;;;;;16.92;75.41;101546.66;5126962;28;20034;-58
2022/07/01 07:08:31;;;;;;;15.50;7.43;;;;;;;16.89;72.65;101554.94;5111565;28;20473;-58
2022/07/01 07:10:58;;;;;;;9.13;6.18;;;;;;;16.85;70.52;101556.13;5130911;28;20027;-58
2022/07/01 07:13:23;;;;;;;10.07;5.80;;;;;;;16.86;71.72;101569.47;5129979;28;20545;-58
2022/07/01 07:15:49;;;;;;;6.63;4.93;;;;;;;17.00;72.55;101580.00;5134050;27;20106;-58
2022/07/01 07:18:15;;;;;;;10.10;4.65;;;;;;;16.94;69.97;101587.66;5135164;27;20030;-58
2022/07/01 07:20:40;;;;;;;9.13;4.43;;;;;;;16.86;71.10;101580.22;5115042;27;20592;-58
2022/07/01 07:23:05;;;;;;;8.75;4.38;;;;;;;17.00;72.32;101579.13;5114263;27;20099;-58
2022/07/01 07:25:31;;;;;;;9.07;4.07;;;;;;;17.02;70.09;101564.59;5134550;27;20049;-58
2022/07/01 07:27:57;;;;;;;6.68;3.28;;;;;;;17.13;70.52;101581.72;5134813;27;20043;-58
2022/07/01 07:30:23;;;;;;;7.13;3.67;;;;;;;17.14;68.88;101576.19;5095490;27;20031;-58
2022/07/01 07:32:48;;;;;;;8.00;3.60;;;;;;;17.08;66.05;101578.53;5116178;27;20035;-58
2022/07/01 07:35:14;;;;;;;7.22;3.35;;;;;;;16.87;66.64;101581.06;5112337;27;20026;-58
2022/07/01 07:37:40;;;;;;;8.93;3.50;;;;;;;16.83;65.84;101579.59;5134485;27;20037;-58
2022/07/01 07:40:12;;;;;;;7.55;3.15;;;;;;;16.88;66.72;101570.19;5135688;27;20130;-58
2022/07/01 07:42:38;;;;;;;7.22;3.08;;;;;;;16.75;67.44;101581.00;5134594;27;20043;-58
2022/07/01 07:45:06;;;;;;;5.40;2.53;;;;;;;16.64;67.59;101582.81;5135315;27;20023;-58
2022/07/01 07:47:32;;;;;;;11.10;3.10;;;;;;;16.80;67.56;101586.94;5135288;27;20106;-66
2022/07/01 07:49:58;;;;;;;6.35;3.08;;;;;;;16.92;64.66;101587.81;5135535;27;20094;-58
2022/07/01 07:52:23;;;;;;;4.20;2.17;;;;;;;17.16;64.08;101590.38;5116289;27;20031;-58
2022/07/01 07:54:49;;;;;;;6.25;2.20;;;;;;;17.35;62.30;101599.66;5100046;27;20526;-58
2022/07/01 07:57:14;;;;;;;6.20;2.33;;;;;;;17.41;62.38;101601.88;5135030;27;20435;-58
2022/07/01 07:59:42;;;;;;;7.03;2.30;;;;;;;17.46;62.49;101597.84;5116537;27;20512;-58
2022/07/01 08:02:08;;;;;;;7.78;2.08;;;;;;;17.70;62.42;101594.16;5134669;27;20031;-58
2022/07/01 08:04:34;;;;;;;5.47;2.10;;;;;;;17.93;64.08;101603.06;5116635;27;20034;-58
2022/07/01 08:07:03;;;;;;;4.90;2.50;;;;;;;18.03;60.42;101606.72;5099374;27;20430;-58
2022/07/01 08:09:28;;;;;;;6.50;1.60;;;;;;;18.07;59.31;101608.19;5134773;27;20027;-58
2022/07/01 08:11:54;;;;;;;5.25;2.05;;;;;;;18.27;58.76;101602.97;5135099;27;20102;-58
2022/07/01 08:14:23;;;;;;;6.32;2.47;;;;;;;18.40;57.12;101617.13;5116766;27;20034;-58
2022/07/01 08:16:48;;;;;;;7.37;1.93;;;;;;;18.45;59.07;101616.75;5116462;27;20027;-58
2022/07/01 08:19:14;;;;;;;6.50;1.80;;;;;;;18.65;57.37;101620.41;5116048;27;20283;-58
2022/07/01 08:21:39;;;;;;;6.47;2.00;;;;;;;18.58;57.86;101620.94;5115640;27;20561;-58
2022/07/01 08:24:07;;;;;;;5.22;1.70;;;;;;;18.55;56.22;101620.34;5134782;27;20031;-58
2022/07/01 08:26:33;;;;;;;5.97;2.20;;;;;;;18.55;57.53;101623.03;5133462;27;20171;-58
2022/07/01 08:28:58;;;;;;;5.80;1.80;;;;;;;18.75;56.82;101641.09;5134277;27;20499;-58
2022/07/01 08:31:24;;;;;;;3.10;1.88;;;;;;;18.89;54.56;101641.78;5082109;27;20366;-58
2022/07/01 08:33:50;;;;;;;3.88;1.77;;;;;;;19.00;54.79;101637.19;5115984;27;20143;-58
2022/07/01 08:36:18;;;;;;;5.80;2.03;;;;;;;18.86;54.46;101634.81;5115755;27;20034;-58
2022/07/01 08:38:47;;;;;;;3.15;1.60;;;;;;;18.84;53.72;101643.00;5115609;27;20053;-58
2022/07/01 08:41:13;;;;;;;3.67;1.70;;;;;;;18.92;53.29;101628.91;5115724;27;20047;-58
2022/07/01 08:43:39;;;;;;;8.13;2.25;;;;;;;19.00;54.83;101631.78;5115277;27;20023;-58
2022/07/01 08:46:04;;;;;;;7.78;1.90;;;;;;;19.01;54.87;101649.66;5115654;27;20035;-58
2022/07/01 08:48:32;;;;;;;6.38;2.00;;;;;;;19.28;55.26;101643.72;5115669;27;20057;-58
2022/07/01 08:50:58;;;;;;;4.93;1.90;;;;;;;19.28;54.34;101649.13;5133589;27;20031;-58
2022/07/01 08:53:23;;;;;;;8.40;2.40;;;;;;;19.43;57.21;101651.47;5134477;27;20492;-58
2022/07/01 08:56:51;;;;;;;4.40;1.98;;;;;;;19.69;53.90;101646.50;5133842;27;20027;-58
2022/07/01 08:58:48;;;;;;;5.20;2.33;;;;;;;19.54;51.76;101670.25;5120155;27;20031;-58
2022/07/01 09:01:22;;;;;;;4.07;2.20;;;;;;;19.69;52.23;101668.09;5133817;27;20019;-58
2022/07/01 09:03:49;;;;;;;2.58;1.75;;;;;;;19.54;52.28;101672.13;5134175;27;20163;-58
2022/07/01 09:06:16;;;;;;;6.28;2.33;;;;;;;19.64;54.17;101671.16;5133722;27;20071;-58
2022/07/01 09:08:42;;;;;;;3.75;1.98;;;;;;;19.64;51.69;101660.34;5115572;27;20359;-58
2022/07/01 09:11:12;;;;;;;4.38;1.90;;;;;;;19.85;54.56;101673.81;5114708;27;20059;-58
2022/07/01 09:13:38;;;;;;;4.85;2.08;;;;;;;20.09;53.57;101673.47;5133627;27;20026;-58
2022/07/01 09:16:11;;;;;;;7.65;2.47;;;;;;;20.06;52.69;101660.25;5115396;27;20074;-58
2022/07/01 09:18:37;;;;;;;5.07;2.03;;;;;;;20.22;53.12;101658.84;5133613;27;20091;-58
2022/07/01 09:21:07;;;;;;;6.68;1.88;;;;;;;20.03;50.79;101657.84;5132998;27;20023;-58
2022/07/01 09:23:33;;;;;;;4.20;1.90;;;;;;;20.14;49.80;101664.94;5114776;27;20019;-58
2022/07/01 09:25:59;;;;;;;4.90;2.10;;;;;;;20.23;48.98;101671.38;5114943;27;20034;-58
2022/07/01 09:28:28;;;;;;;5.82;1.92;;;;;;;20.28;49.87;101667.25;5133970;27;20076;-57
2022/07/01 09:30:58;;;;;;;2.70;1.83;;;;;;;20.56;49.08;101672.84;5133550;27;20075;-60
2022/07/01 09:33:31;;;;;;;5.85;1.88;;;;;;;20.64;49.03;101678.41;5133284;27;20023;-61
2022/07/01 09:36:16;;;;;;;5.10;2.28;;;;;;;20.77;49.18;101673.56;5089190;28;20071;-64
2022/07/01 09:38:47;;;;;;;5.13;2.10;;;;;;;20.98;49.36;101675.28;5089916;28;20036;-63
2022/07/01 09:41:13;;;;;;;4.28;1.80;;;;;;;21.30;48.66;101680.34;5089241;28;20052;-62
2022/07/01 09:43:39;;;;;;;4.13;1.83;;;;;;;21.29;47.30;101674.03;5090102;28;20028;-61
2022/07/01 09:46:10;;;;;;;7.90;2.05;;;;;;;21.26;47.96;101678.91;5092195;28;20039;-62
2022/07/01 09:48:35;;;;;;;6.25;2.05;;;;;;;21.42;48.15;101681.88;5088756;28;20024;-63
2022/07/01 09:51:03;;;;;;;6.30;2.10;;;;;;;21.41;47.11;101685.56;5089444;28;20181;-61
2022/07/01 09:53:29;;;;;;;5.20;1.90;;;;;;;21.05;47.21;101684.50;5091132;28;20106;-61
2022/07/01 09:55:54;;;;;;;6.25;1.88;;;;;;;21.02;47.33;101688.34;5089729;28;20130;-61
2022/07/01 09:58:20;;;;;;;5.80;1.90;;;;;;;21.12;48.14;101682.94;5089571;28;20032;-60
2022/07/01 10:00:46;;;;;;;7.93;1.88;;;;;;;21.04;45.96;101682.81;5072824;28;20032;-60
2022/07/01 10:03:12;;;;;;;6.45;1.92;;;;;;;21.05;45.67;101679.94;5089712;28;20028;-61
2022/07/01 10:05:57;;;;;;;3.10;1.38;;;;;;;21.33;47.97;101677.34;5091472;28;20594;-61
2022/07/01 10:08:59;;;;;;;3.70;1.67;;;;;;;21.57;47.71;101692.25;5113350;27;20046;-60
2022/07/01 10:11:56;;;;;;;3.85;1.67;;;;;;;21.50;46.77;101700.09;5114384;27;20027;-61
2022/07/01 10:14:22;;;;;;;3.72;1.40;;;;;;;21.18;45.10;101704.00;5132453;27;20098;-61
2022/07/01 10:16:50;;;;;;;4.18;1.60;;;;;;;21.22;47.38;101701.84;5132947;27;20427;-60
2022/07/01 10:19:30;;;;;;;4.70;1.80;;;;;;;21.39;46.51;101698.44;5097760;27;20034;-61
2022/07/01 10:21:59;;;;;;;7.75;2.03;;;;;;;21.52;45.25;101709.78;5132138;27;20783;-58
2022/07/01 10:24:27;;;;;;;20.45;2.22;;;;;;;21.52;43.78;101701.66;5132067;27;20026;-56
2022/07/01 10:26:59;;;;;;;4.85;1.75;;;;;;;21.60;44.72;101706.34;5129841;27;20875;-58
2022/07/01 10:29:35;;;;;;;3.67;1.30;;;;;;;21.50;44.42;101725.31;5132364;27;20027;-59
2022/07/01 10:32:22;;;;;;;2.22;1.35;;;;;;;21.95;45.17;101723.72;5132309;27;20027;-59
2022/07/01 10:34:48;;;;;;;8.32;1.48;;;;;;;22.28;43.79;101730.44;5117108;27;20589;-59
2022/07/01 10:37:16;;;;;;;6.68;1.50;;;;;;;21.94;44.17;101716.59;5113115;27;20037;-60
2022/07/01 10:39:53;;;;;;;2.85;1.25;;;;;;;;;;5132104;27;20039;-59
2022/07/01 10:42:19;;;;;;;5.10;1.65;;;;;;;22.12;44.47;101719.34;5131771;27;20039;-59
2022/07/01 10:45:12;;;;;;;3.75;1.40;;;;;;;22.32;43.92;101720.97;5113375;27;20039;-59
2022/07/01 10:47:39;;;;;;;5.68;1.50;;;;;;;22.00;44.32;101725.00;5131666;27;20027;-59
2022/07/01 10:50:11;;;;;;;4.53;1.20;;;;;;;22.11;45.20;101707.66;5131691;27;20027;-59
2022/07/01 10:52:37;;;;;;;2.65;1.30;;;;;;;22.23;43.49;101703.75;5130905;27;20038;-58
2022/07/01 10:55:08;;;;;;;6.05;1.42;;;;;;;22.72;46.10;101700.72;5132009;27;20030;-60
2022/07/01 10:57:38;;;;;;;6.78;1.40;;;;;;;22.77;41.95;101719.25;5131744;28;20110;-59
2022/07/01 11:00:03;;;;;;;3.85;1.48;;;;;;;22.67;42.07;101713.88;5132138;28;20478;-60
2022/07/01 11:02:33;;;;;;;3.88;1.10;;;;;;;22.58;43.80;101709.41;5128508;28;20127;-60
2022/07/01 11:05:01;;;;;;;6.72;1.20;;;;;;;22.70;42.35;101710.88;5129702;28;20103;-59
2022/07/01 11:07:29;;;;;;;2.97;1.42;;;;;;;22.90;42.86;101717.00;5108026;28;20034;-60
2022/07/01 11:09:55;;;;;;;4.33;1.30;;;;;;;22.99;42.79;101723.38;5129022;28;20521;-60
2022/07/01 11:12:23;;;;;;;5.45;1.50;;;;;;;22.67;41.93;101703.03;5127000;28;20470;-59
2022/07/01 11:14:50;;;;;;;4.57;1.20;;;;;;;22.88;42.81;101698.16;5131691;28;20026;-59
2022/07/01 11:17:16;;;;;;;4.78;1.13;;;;;;;23.20;45.28;101695.88;5130888;28;20024;-60
2022/07/01 11:19:53;;;;;;;7.00;1.15;;;;;;;23.46;42.59;101695.88;5131032;28;20468;-60
2022/07/01 11:22:20;;;;;;;6.53;1.50;;;;;;;23.50;43.68;101684.56;5129215;28;20466;-60
2022/07/01 11:24:46;;;;;;;2.22;1.25;;;;;;;23.25;40.74;101691.69;5112781;28;20019;-60
2022/07/01 11:27:12;;;;;;;5.53;1.38;;;;;;;23.15;42.00;101696.38;5129225;28;20072;-60
2022/07/01 11:29:37;;;;;;;4.35;1.35;;;;;;;23.43;42.70;101677.22;5129527;28;20106;-60
2022/07/01 11:32:03;;;;;;;2.97;1.15;;;;;;;23.42;43.09;101686.38;5112598;28;20371;-60